Corona, California
Current Conditions -  °F | °C
As of 8:56 PM on Thursday 30 Oct 2014 (Local Time) from KAJO Reporting Station
Overcast Overcast  
Wind Chill: 67°   Ceiling: 100
Heat Index: 67°   Visibility: 10mi
Dew Point: 59°   Wind: 5mph
Humidity: 76%   Direction: 280°W
Pressure: 29.97"   Gusts: NA
Location:  33.88°N, 117.57°W
Report Text: KAJO 310356Z AUTO 28004KT 10SM OVC001 19/15 A2997 RMK AO2 T01940150 SLP145 $
Loading
Personal Weather Stations






























Interactive Weather Map
Tropical Storm Tracking
New forecast layout! Learn more

10-Day Weather Forecast

Advertisements
Track Severe Weather on mobile